createdAt,value
2024-03-02T00:00:33.787Z,54.37
2024-03-02T00:02:43.711Z,54.53
2024-03-02T00:04:47.553Z,54.40
2024-03-02T00:06:54.213Z,54.56
2024-03-02T00:09:01.046Z,54.48
2024-03-02T00:11:05.280Z,54.47
2024-03-02T00:13:09.253Z,54.36
2024-03-02T00:15:48.422Z,54.51
2024-03-02T00:17:57.851Z,54.55
2024-03-02T00:20:01.343Z,54.63
2024-03-02T00:22:05.522Z,54.48
2024-03-02T00:24:23.371Z,54.52
2024-03-02T00:26:25.842Z,54.45
2024-03-02T00:28:35.124Z,54.47
2024-03-02T00:31:00.378Z,54.45
2024-03-02T00:33:09.550Z,54.26
2024-03-02T00:35:13.141Z,54.33
2024-03-02T00:37:16.885Z,54.32
2024-03-02T00:39:20.939Z,54.39
2024-03-02T00:41:29.922Z,54.46
2024-03-02T00:43:47.458Z,54.60
2024-03-02T00:45:51.542Z,54.59
2024-03-02T00:47:55.382Z,54.46
2024-03-02T00:50:00.048Z,54.63
2024-03-02T00:52:03.642Z,54.54
2024-03-02T00:54:09.849Z,54.44
2024-03-02T00:56:13.435Z,54.42
2024-03-02T00:58:16.667Z,54.37
2024-03-02T01:00:20.835Z,54.56
2024-03-02T01:02:24.084Z,54.43
2024-03-02T01:04:27.422Z,54.63
2024-03-02T01:06:33.189Z,54.48
2024-03-02T01:08:36.808Z,54.52
2024-03-02T01:10:40.075Z,54.50
2024-03-02T01:12:43.378Z,54.68
2024-03-02T01:14:46.670Z,54.64
2024-03-02T01:16:50.566Z,54.56
2024-03-02T01:18:53.075Z,54.50
2024-03-02T01:20:57.408Z,54.51
2024-03-02T01:23:02.188Z,54.64
2024-03-02T01:25:05.518Z,54.52
2024-03-02T01:27:08.905Z,54.58
2024-03-02T01:29:12.280Z,54.67
2024-03-02T01:31:15.656Z,54.52
2024-03-02T01:33:18.999Z,54.66
2024-03-02T01:35:22.401Z,54.51
2024-03-02T01:37:24.748Z,54.49
2024-03-02T01:39:29.361Z,54.44
2024-03-02T01:41:32.049Z,54.46
2024-03-02T01:43:38.773Z,54.42
2024-03-02T01:45:43.759Z,54.49
2024-03-02T01:47:47.190Z,54.55
2024-03-02T01:49:51.798Z,54.50
2024-03-02T01:51:55.105Z,54.32
2024-03-02T01:53:58.394Z,54.42
2024-03-02T01:56:03.386Z,54.30
2024-03-02T01:58:07.870Z,54.19
2024-03-02T02:00:12.213Z,54.29
2024-03-02T02:02:16.198Z,54.37
2024-03-02T02:04:19.558Z,54.29
2024-03-02T02:06:23.986Z,54.41
2024-03-02T02:08:27.473Z,54.41
2024-03-02T02:10:30.705Z,54.33
2024-03-02T02:12:35.376Z,54.38
2024-03-02T02:14:40.277Z,54.31
2024-03-02T02:16:43.484Z,54.41
2024-03-02T02:18:45.835Z,54.51
2024-03-02T02:20:49.386Z,54.47
2024-03-02T02:23:01.614Z,54.29
2024-03-02T02:25:05.284Z,54.37
2024-03-02T02:27:08.770Z,54.52
2024-03-02T02:29:12.034Z,54.43
2024-03-02T02:31:17.960Z,54.39
2024-03-02T02:33:21.304Z,54.37
2024-03-02T02:35:25.364Z,54.37
2024-03-02T02:37:27.950Z,54.35
2024-03-02T02:39:32.736Z,54.46
2024-03-02T02:41:36.049Z,54.34
2024-03-02T02:43:40.882Z,54.53
2024-03-02T02:45:44.186Z,54.21
2024-03-02T02:47:47.649Z,54.35
2024-03-02T02:49:50.953Z,54.45
2024-03-02T02:51:54.817Z,54.37
2024-03-02T02:53:58.259Z,54.49
2024-03-02T02:56:03.882Z,54.45
2024-03-02T02:58:07.295Z,54.52
2024-03-02T03:00:15.450Z,54.46
2024-03-02T03:02:18.073Z,54.54
2024-03-02T03:04:21.396Z,54.49
2024-03-02T03:06:23.663Z,54.52
2024-03-02T03:08:27.046Z,54.64
2024-03-02T03:10:30.398Z,54.40
2024-03-02T03:12:35.639Z,54.52
2024-03-02T03:14:38.917Z,54.36
2024-03-02T03:16:42.275Z,54.27
2024-03-02T03:18:45.806Z,54.49
2024-03-02T03:20:49.100Z,54.34
2024-03-02T03:22:53.180Z,54.36
2024-03-02T03:24:56.669Z,54.21
2024-03-02T03:27:00.093Z,54.36
2024-03-02T03:29:04.865Z,54.34
2024-03-02T03:31:08.165Z,54.26
2024-03-02T03:33:11.659Z,54.46
2024-03-02T03:35:16.351Z,54.27
2024-03-02T03:37:19.928Z,54.26
2024-03-02T03:39:23.234Z,54.39
2024-03-02T03:41:26.672Z,54.19
2024-03-02T03:43:30.510Z,54.24
2024-03-02T03:45:35.523Z,54.31
2024-03-02T03:47:39.684Z,54.34
2024-03-02T03:49:43.035Z,54.15
2024-03-02T03:51:46.365Z,54.41
2024-03-02T03:53:49.905Z,54.13
2024-03-02T03:55:53.323Z,54.16
2024-03-02T03:57:56.712Z,54.29
2024-03-02T04:00:00.916Z,54.15
2024-03-02T04:02:06.389Z,54.39
2024-03-02T04:04:09.676Z,54.28
2024-03-02T04:06:12.025Z,54.42
2024-03-02T04:08:15.324Z,54.31
2024-03-02T04:10:19.140Z,54.44
2024-03-02T04:12:23.315Z,54.41
2024-03-02T04:14:26.958Z,54.34
2024-03-02T04:16:30.577Z,54.51
2024-03-02T04:18:36.095Z,54.61
2024-03-02T04:20:39.462Z,54.51
2024-03-02T04:22:41.954Z,54.42
2024-03-02T04:24:45.303Z,54.42
2024-03-02T04:26:48.712Z,54.42
2024-03-02T04:28:51.995Z,54.29
2024-03-02T04:30:55.345Z,54.35
2024-03-02T04:32:58.787Z,54.44
2024-03-02T04:35:03.547Z,54.33
2024-03-02T04:37:07.950Z,54.47
2024-03-02T04:39:10.926Z,54.13
2024-03-02T04:41:14.298Z,54.41
2024-03-02T04:43:17.726Z,54.40
2024-03-02T04:45:21.118Z,54.40
2024-03-02T04:47:24.807Z,54.30
2024-03-02T04:49:27.226Z,54.41
2024-03-02T04:51:32.002Z,54.69
2024-03-02T04:53:35.354Z,54.41
2024-03-02T04:56:05.120Z,54.39
2024-03-02T04:58:07.745Z,54.24
2024-03-02T05:00:13.819Z,54.37
2024-03-02T05:02:17.309Z,54.35
2024-03-02T05:04:19.658Z,54.29
2024-03-02T05:06:22.948Z,54.57
2024-03-02T05:08:27.824Z,54.27
2024-03-02T05:10:30.434Z,54.26
2024-03-02T05:12:57.807Z,54.39
2024-03-02T05:15:01.224Z,54.18
2024-03-02T05:17:04.604Z,54.29
2024-03-02T05:19:08.165Z,54.24
2024-03-02T05:21:12.642Z,54.07
2024-03-02T05:23:15.855Z,54.38
2024-03-02T05:25:19.807Z,54.33
2024-03-02T05:27:23.173Z,54.19
2024-03-02T05:29:27.383Z,54.23
2024-03-02T05:31:30.621Z,54.19
2024-03-02T05:33:34.395Z,54.24
2024-03-02T05:35:36.749Z,54.42
2024-03-02T05:37:40.256Z,54.27
2024-03-02T05:39:44.470Z,54.29
2024-03-02T05:41:49.166Z,54.36
2024-03-02T05:43:52.402Z,54.31
2024-03-02T05:45:55.731Z,54.23
2024-03-02T05:47:59.469Z,54.26
2024-03-02T05:50:04.941Z,54.19
2024-03-02T05:52:09.184Z,54.31
2024-03-02T05:54:12.527Z,54.24
2024-03-02T05:56:14.846Z,54.23
2024-03-02T05:58:28.813Z,54.27
2024-03-02T06:00:32.566Z,54.29
2024-03-02T06:02:39.882Z,54.11
2024-03-02T06:04:44.233Z,54.23
2024-03-02T06:06:47.663Z,54.21
2024-03-02T06:08:50.022Z,54.18
2024-03-02T06:10:53.322Z,54.33
2024-03-02T06:12:56.747Z,54.31
2024-03-02T06:15:01.528Z,54.31
2024-03-02T06:17:06.358Z,54.30
2024-03-02T06:19:09.648Z,54.29
2024-03-02T06:21:12.880Z,54.22
2024-03-02T06:23:16.233Z,54.27
2024-03-02T06:25:18.474Z,54.27
2024-03-02T06:27:21.943Z,54.15
2024-03-02T06:29:24.294Z,54.25
2024-03-02T06:31:29.005Z,54.28
2024-03-02T06:33:32.477Z,54.30
2024-03-02T06:35:36.368Z,54.30
2024-03-02T06:37:40.846Z,54.26
2024-03-02T06:39:44.183Z,54.31
2024-03-02T06:41:48.335Z,54.40
2024-03-02T06:44:00.327Z,54.36
2024-03-02T06:46:03.788Z,54.43
2024-03-02T06:48:09.594Z,54.28
2024-03-02T06:50:11.912Z,54.27
2024-03-02T06:52:15.343Z,54.28
2024-03-02T06:54:18.653Z,54.25
2024-03-02T06:56:22.031Z,54.55
2024-03-02T06:58:24.584Z,54.25
2024-03-02T07:00:27.986Z,54.27
2024-03-02T07:02:30.230Z,54.29
2024-03-02T07:04:34.921Z,54.25
2024-03-02T07:06:39.230Z,54.12
2024-03-02T07:08:43.059Z,54.23
2024-03-02T07:10:46.335Z,54.15
2024-03-02T07:12:48.709Z,54.08
2024-03-02T07:15:19.739Z,54.10
2024-03-02T07:17:22.127Z,54.17
2024-03-02T07:19:26.408Z,54.24
2024-03-02T07:21:31.622Z,54.20
2024-03-02T07:23:33.966Z,54.17
2024-03-02T07:27:45.072Z,54.23
2024-03-02T07:29:48.562Z,54.20
2024-03-02T07:31:52.317Z,54.35
2024-03-02T07:33:56.552Z,54.29
2024-03-02T07:36:04.626Z,54.26
2024-03-02T07:38:09.966Z,54.34
2024-03-02T07:40:15.470Z,54.32
2024-03-02T07:42:19.383Z,53.96
2024-03-02T07:44:22.881Z,54.00
2024-03-02T07:46:25.295Z,53.81
2024-03-02T07:48:28.803Z,54.05
2024-03-02T07:50:32.269Z,53.83
2024-03-02T07:52:35.743Z,53.86
2024-03-02T07:54:40.561Z,53.90
2024-03-02T07:56:43.970Z,53.86
2024-03-02T07:58:49.225Z,53.79
2024-03-02T08:00:55.170Z,53.73
2024-03-02T08:02:59.105Z,53.74
2024-03-02T08:05:02.559Z,53.61
2024-03-02T08:07:07.391Z,53.45
2024-03-02T08:09:11.623Z,53.55
2024-03-02T08:11:16.305Z,53.36
2024-03-02T08:13:19.572Z,53.46
2024-03-02T08:15:22.873Z,53.25
2024-03-02T08:17:26.149Z,53.41
2024-03-02T08:19:29.526Z,53.30
2024-03-02T08:21:33.338Z,53.26
2024-03-02T08:23:37.349Z,53.23
2024-03-02T08:25:40.633Z,53.26
2024-03-02T08:27:45.692Z,53.36
2024-03-02T08:29:48.948Z,53.44
2024-03-02T08:31:53.149Z,53.53
2024-03-02T08:33:58.261Z,53.46
2024-03-02T08:36:02.489Z,53.38
2024-03-02T08:38:06.563Z,53.50
2024-03-02T08:40:16.601Z,53.50
2024-03-02T08:42:26.686Z,53.51
2024-03-02T08:45:05.636Z,53.29
2024-03-02T08:47:17.695Z,52.94
2024-03-02T08:49:22.548Z,52.57
2024-03-02T08:51:35.091Z,52.46
2024-03-02T08:53:52.595Z,52.54
2024-03-02T08:55:59.687Z,52.25
2024-03-02T08:58:21.486Z,51.79
2024-03-02T09:00:43.852Z,51.68
2024-03-02T09:02:56.110Z,51.76
2024-03-02T09:05:09.022Z,51.78
2024-03-02T09:07:15.616Z,51.67
2024-03-02T09:09:31.382Z,51.78
2024-03-02T09:11:40.072Z,51.73
2024-03-02T09:13:48.700Z,52.12
2024-03-02T09:16:02.713Z,52.11
2024-03-02T09:18:13.884Z,52.35
2024-03-02T09:20:19.437Z,52.33
2024-03-02T09:22:36.255Z,52.73
2024-03-02T09:24:41.540Z,52.53
2024-03-02T09:26:46.960Z,52.51
2024-03-02T09:28:50.177Z,52.41
2024-03-02T09:31:01.098Z,52.40
2024-03-02T09:33:18.235Z,52.53
2024-03-02T09:35:30.685Z,52.37
2024-03-02T09:37:33.919Z,52.03
2024-03-02T09:39:37.294Z,51.33
2024-03-02T09:41:46.263Z,50.91
2024-03-02T09:44:04.012Z,50.06
2024-03-02T09:46:15.388Z,49.31
2024-03-02T09:48:29.224Z,48.91
2024-03-02T09:50:37.186Z,48.60
2024-03-02T09:52:43.285Z,48.12
2024-03-02T09:54:49.987Z,48.35
2024-03-02T09:56:53.561Z,48.75
2024-03-02T09:58:57.071Z,48.87
2024-03-02T10:01:00.456Z,48.70
2024-03-02T10:03:06.012Z,48.88
2024-03-02T10:05:10.112Z,49.05
2024-03-02T10:07:18.044Z,49.34
2024-03-02T10:09:30.469Z,49.35
2024-03-02T10:11:37.795Z,49.08
2024-03-02T10:13:41.231Z,49.31
2024-03-02T10:15:44.730Z,49.42
2024-03-02T10:17:48.035Z,49.29
2024-03-02T10:19:52.588Z,49.46
2024-03-02T10:22:00.429Z,49.57
2024-03-02T10:24:09.732Z,49.19
2024-03-02T10:26:20.401Z,49.50
2024-03-02T10:28:23.646Z,49.98
2024-03-02T10:30:31.193Z,49.92
2024-03-02T10:32:37.004Z,50.05
2024-03-02T10:34:42.935Z,50.05
2024-03-02T10:36:47.718Z,50.10
2024-03-02T10:38:54.185Z,50.17
2024-03-02T10:41:00.895Z,49.98
2024-03-02T10:43:06.902Z,50.19
2024-03-02T10:45:13.028Z,50.34
2024-03-02T10:47:20.056Z,50.24
2024-03-02T10:49:25.253Z,50.42
2024-03-02T10:51:32.513Z,50.26
2024-03-02T10:53:37.123Z,50.66
2024-03-02T10:55:40.487Z,50.59
2024-03-02T10:57:53.292Z,50.72
2024-03-02T11:00:05.632Z,50.20
2024-03-02T11:02:14.435Z,50.38
2024-03-02T11:04:20.193Z,50.42
2024-03-02T11:06:28.460Z,50.32
2024-03-02T11:08:32.072Z,50.52
2024-03-02T11:10:43.937Z,50.52
2024-03-02T11:12:58.282Z,50.25
2024-03-02T11:15:05.819Z,50.14
2024-03-02T11:17:10.367Z,50.26
2024-03-02T11:19:17.834Z,50.05
2024-03-02T11:21:23.934Z,50.08
2024-03-02T11:23:35.234Z,50.24
2024-03-02T11:25:40.700Z,49.93
2024-03-02T11:28:07.633Z,50.06
2024-03-02T11:30:40.145Z,49.81
2024-03-02T11:32:43.652Z,49.88
2024-03-02T11:34:50.574Z,49.89
2024-03-02T11:36:54.141Z,49.96
2024-03-02T11:38:57.570Z,49.81
2024-03-02T11:41:05.031Z,49.36
2024-03-02T11:43:09.303Z,49.14
2024-03-02T11:45:12.931Z,49.14
2024-03-02T11:47:18.834Z,49.04
2024-03-02T11:49:39.716Z,49.06
2024-03-02T11:52:02.976Z,49.08
2024-03-02T11:54:10.874Z,48.82
2024-03-02T11:56:18.848Z,48.50
2024-03-02T11:58:21.932Z,48.38
2024-03-02T12:00:25.531Z,48.13
2024-03-02T12:02:28.858Z,48.34
2024-03-02T12:04:32.311Z,47.80
2024-03-02T12:06:35.709Z,47.43
2024-03-02T12:08:39.222Z,47.50
2024-03-02T12:10:41.737Z,47.64
2024-03-02T12:12:47.314Z,47.76
2024-03-02T12:14:56.533Z,47.24
2024-03-02T12:17:00.810Z,47.49
2024-03-02T12:19:04.191Z,47.47
2024-03-02T12:21:09.731Z,47.35
2024-03-02T12:23:15.143Z,47.17
2024-03-02T12:25:19.315Z,47.31
2024-03-02T12:27:23.299Z,47.16
2024-03-02T12:29:28.728Z,46.92
2024-03-02T12:31:32.362Z,46.99
2024-03-02T12:33:35.830Z,46.66
2024-03-02T12:35:40.740Z,46.89
2024-03-02T12:37:48.140Z,46.93
2024-03-02T12:39:51.465Z,46.95
2024-03-02T12:41:56.279Z,47.12
2024-03-02T12:43:58.723Z,47.10
2024-03-02T12:46:03.590Z,46.87
2024-03-02T12:48:08.268Z,46.77
2024-03-02T12:50:12.714Z,46.69
2024-03-02T12:52:18.783Z,46.74
2024-03-02T12:54:25.815Z,46.66
2024-03-02T12:56:29.771Z,46.47
2024-03-02T12:58:42.152Z,46.62
2024-03-02T13:00:45.831Z,46.49
2024-03-02T13:02:52.024Z,46.45
2024-03-02T13:04:55.274Z,46.41
2024-03-02T13:06:59.607Z,46.59
2024-03-02T13:09:03.748Z,46.76
2024-03-02T13:11:08.186Z,46.91
2024-03-02T13:13:11.771Z,47.04
2024-03-02T13:15:17.850Z,47.07
2024-03-02T13:17:24.114Z,47.01
2024-03-02T13:19:32.000Z,47.04
2024-03-02T13:21:34.371Z,46.94
2024-03-02T13:23:37.748Z,47.10
2024-03-02T13:25:41.591Z,47.16
2024-03-02T13:27:45.004Z,46.93
2024-03-02T13:29:49.389Z,46.91
2024-03-02T13:31:54.084Z,46.63
2024-03-02T13:33:57.203Z,46.69
2024-03-02T13:36:02.788Z,46.72
2024-03-02T13:38:05.410Z,46.31
2024-03-02T13:40:15.001Z,46.31
2024-03-02T13:42:18.818Z,46.49
2024-03-02T13:44:22.839Z,46.25
2024-03-02T13:46:26.113Z,46.25
2024-03-02T13:48:29.498Z,46.44
2024-03-02T13:50:34.469Z,46.39
2024-03-02T13:52:39.274Z,46.21
2024-03-02T13:54:43.826Z,46.05
2024-03-02T13:56:48.029Z,46.17
2024-03-02T13:58:51.519Z,45.94
2024-03-02T14:00:55.129Z,46.13
2024-03-02T14:02:58.597Z,45.88
2024-03-02T14:05:03.009Z,45.79
2024-03-02T14:07:08.172Z,45.97
2024-03-02T14:09:12.941Z,45.75
2024-03-02T14:11:17.978Z,45.90
2024-03-02T14:13:21.298Z,46.03
2024-03-02T14:15:25.359Z,46.40
2024-03-02T14:17:27.818Z,45.94
2024-03-02T14:19:31.629Z,45.80
2024-03-02T14:21:37.003Z,46.08
2024-03-02T14:23:41.297Z,46.17
2024-03-02T14:25:46.044Z,46.31
2024-03-02T14:28:08.251Z,46.26
2024-03-02T14:30:14.576Z,46.70
2024-03-02T14:32:18.739Z,46.47
2024-03-02T14:34:23.439Z,46.36
2024-03-02T14:36:28.666Z,46.32
2024-03-02T14:38:32.542Z,46.42
2024-03-02T14:40:36.868Z,46.33
2024-03-02T14:42:41.558Z,46.28
2024-03-02T14:44:45.222Z,46.42
2024-03-02T14:46:51.803Z,46.43
2024-03-02T14:48:55.167Z,46.40
2024-03-02T14:50:59.329Z,46.47
2024-03-02T14:53:03.368Z,46.48
2024-03-02T14:55:09.254Z,46.36
2024-03-02T14:57:13.746Z,46.20
2024-03-02T14:59:18.475Z,46.07
2024-03-02T15:01:24.321Z,46.28
2024-03-02T15:03:27.723Z,46.12
2024-03-02T15:05:32.019Z,46.10
2024-03-02T15:07:34.353Z,46.39
2024-03-02T15:09:38.203Z,46.42
2024-03-02T15:11:40.677Z,46.46
2024-03-02T15:13:44.820Z,46.46
2024-03-02T15:15:49.548Z,46.48
2024-03-02T15:17:53.661Z,46.47
2024-03-02T15:19:57.077Z,46.40
2024-03-02T15:22:00.610Z,46.53
2024-03-02T15:24:04.124Z,46.61
2024-03-02T15:26:09.812Z,46.50
2024-03-02T15:28:14.192Z,46.49
2024-03-02T15:30:18.026Z,46.61
2024-03-02T15:32:23.050Z,46.63
2024-03-02T15:34:26.579Z,46.79
2024-03-02T15:36:29.888Z,46.53
2024-03-02T15:38:35.377Z,46.44
2024-03-02T15:40:39.641Z,46.63
2024-03-02T15:42:42.984Z,46.74
2024-03-02T15:44:46.425Z,46.60
2024-03-02T15:46:50.618Z,46.52
2024-03-02T15:48:55.497Z,46.68
2024-03-02T15:50:59.901Z,46.45
2024-03-02T15:53:07.431Z,46.63
2024-03-02T15:55:10.308Z,46.57
2024-03-02T15:57:14.105Z,47.14
2024-03-02T15:59:17.468Z,46.84
2024-03-02T16:01:21.547Z,46.74
2024-03-02T16:03:24.978Z,46.81
2024-03-02T16:05:29.879Z,46.79
2024-03-02T16:07:34.074Z,46.48
2024-03-02T16:09:38.372Z,46.78
2024-03-02T16:11:42.626Z,46.84
2024-03-02T16:13:45.918Z,46.88
2024-03-02T16:15:49.510Z,46.84
2024-03-02T16:17:52.723Z,46.70
2024-03-02T16:19:58.062Z,46.79
2024-03-02T16:22:03.147Z,46.94
2024-03-02T16:24:06.217Z,46.85
2024-03-02T16:26:10.247Z,46.96
2024-03-02T16:28:13.683Z,46.86
2024-03-02T16:30:19.647Z,46.80
2024-03-02T16:32:23.145Z,47.07
2024-03-02T16:34:28.756Z,46.93
2024-03-02T16:36:33.947Z,47.09
2024-03-02T16:38:40.039Z,47.10
2024-03-02T16:40:43.258Z,47.05
2024-03-02T16:42:46.507Z,46.90
2024-03-02T16:44:49.515Z,46.88
2024-03-02T16:46:52.613Z,47.37
2024-03-02T16:48:55.966Z,47.00
2024-03-02T16:50:59.046Z,47.07
2024-03-02T16:53:02.502Z,46.89
2024-03-02T16:55:08.695Z,47.01
2024-03-02T16:57:11.218Z,46.87
2024-03-02T16:59:14.645Z,47.12
2024-03-02T17:01:18.150Z,47.39
2024-03-02T17:03:21.460Z,47.42
2024-03-02T17:05:25.629Z,47.33
2024-03-02T17:07:30.743Z,47.55
2024-03-02T17:09:34.685Z,47.83
2024-03-02T17:11:39.482Z,48.12
2024-03-02T17:13:42.812Z,48.00
2024-03-02T17:15:46.332Z,48.19
2024-03-02T17:17:48.650Z,48.00
2024-03-02T17:19:51.873Z,48.22
2024-03-02T17:21:55.389Z,48.23
2024-03-02T17:23:59.517Z,48.23
2024-03-02T17:26:03.948Z,48.48
2024-03-02T17:28:28.846Z,48.30
2024-03-02T17:30:32.725Z,48.29
2024-03-02T17:32:36.076Z,48.31
2024-03-02T17:34:40.017Z,48.43
2024-03-02T17:36:42.331Z,48.26
2024-03-02T17:38:45.851Z,48.69
2024-03-02T17:40:49.182Z,48.53
2024-03-02T17:42:52.685Z,48.53
2024-03-02T17:44:57.739Z,48.63
2024-03-02T17:47:01.086Z,48.68
2024-03-02T17:49:05.481Z,48.96
2024-03-02T17:51:10.071Z,48.69
2024-03-02T17:53:12.744Z,48.96
2024-03-02T17:55:16.423Z,48.72
2024-03-02T17:57:19.828Z,48.78
2024-03-02T17:59:23.180Z,48.71
2024-03-02T18:01:28.625Z,48.93
2024-03-02T18:03:32.305Z,49.03
2024-03-02T18:05:36.767Z,49.13
2024-03-02T18:07:40.088Z,49.00
2024-03-02T18:09:43.700Z,49.15
2024-03-02T18:11:46.296Z,49.21
2024-03-02T18:13:49.506Z,49.32
2024-03-02T18:15:53.234Z,49.35
2024-03-02T18:17:58.141Z,49.37
2024-03-02T18:20:01.404Z,49.41
2024-03-02T18:22:04.653Z,49.44
2024-03-02T18:24:08.740Z,49.49
2024-03-02T18:26:12.058Z,49.49
2024-03-02T18:28:15.450Z,49.50
2024-03-02T18:30:20.284Z,49.46
2024-03-02T18:32:26.430Z,49.54
2024-03-02T18:34:31.546Z,49.41
2024-03-02T18:36:34.939Z,49.62
2024-03-02T18:38:39.254Z,49.55
2024-03-02T18:40:48.005Z,49.58
2024-03-02T18:42:51.406Z,49.57
2024-03-02T18:44:55.180Z,49.60
2024-03-02T18:46:58.420Z,49.52
2024-03-02T18:49:02.067Z,49.63
2024-03-02T18:51:10.438Z,49.78
2024-03-02T18:53:14.509Z,49.79
2024-03-02T18:55:17.171Z,49.86
2024-03-02T18:57:20.966Z,49.74
2024-03-02T18:59:25.356Z,49.78
2024-03-02T19:01:28.804Z,49.73
2024-03-02T19:03:32.924Z,49.77
2024-03-02T19:05:36.395Z,49.75
2024-03-02T19:07:41.277Z,49.64
2024-03-02T19:09:44.828Z,49.88
2024-03-02T19:11:48.162Z,49.84
2024-03-02T19:13:53.034Z,49.66
2024-03-02T19:15:56.709Z,49.68
2024-03-02T19:18:00.204Z,49.71
2024-03-02T19:20:04.120Z,49.70
2024-03-02T19:22:11.463Z,49.50
2024-03-02T19:24:16.859Z,49.47
2024-03-02T19:26:21.208Z,49.51
2024-03-02T19:28:24.856Z,49.72
2024-03-02T19:30:28.318Z,49.55
2024-03-02T19:32:31.287Z,49.43
2024-03-02T19:34:34.540Z,49.73
2024-03-02T19:36:37.953Z,49.71
2024-03-02T19:38:42.189Z,49.63
2024-03-02T19:40:47.957Z,49.80
2024-03-02T19:42:51.468Z,49.62
2024-03-02T19:44:54.968Z,49.78
2024-03-02T19:46:58.555Z,49.77
2024-03-02T19:49:01.928Z,49.63
2024-03-02T19:51:04.919Z,49.62
2024-03-02T19:53:08.386Z,49.59
2024-03-02T19:55:13.855Z,49.78
2024-03-02T19:57:19.402Z,49.77
2024-03-02T19:59:21.676Z,49.74
2024-03-02T20:01:25.175Z,49.61
2024-03-02T20:03:29.134Z,49.41
2024-03-02T20:05:32.471Z,49.54
2024-03-02T20:07:37.136Z,49.55
2024-03-02T20:09:41.716Z,49.69
2024-03-02T20:11:45.941Z,49.53
2024-03-02T20:13:50.558Z,49.48
2024-03-02T20:15:54.056Z,49.57
2024-03-02T20:17:56.484Z,49.56
2024-03-02T20:20:01.123Z,49.62
2024-03-02T20:22:05.066Z,49.71
2024-03-02T20:24:09.404Z,49.51
2024-03-02T20:26:12.733Z,49.70
2024-03-02T20:28:18.109Z,49.78
2024-03-02T20:30:22.948Z,49.25
2024-03-02T20:32:27.131Z,49.43
2024-03-02T20:34:30.615Z,49.53
2024-03-02T20:36:34.316Z,49.37
2024-03-02T20:38:37.508Z,49.29
2024-03-02T20:40:41.806Z,49.42
2024-03-02T20:42:46.012Z,49.16
2024-03-02T20:44:49.528Z,49.11
2024-03-02T20:46:55.152Z,49.35
2024-03-02T20:48:58.329Z,49.22
2024-03-02T20:51:02.024Z,49.37
2024-03-02T20:53:08.098Z,49.24
2024-03-02T20:55:12.355Z,49.38
2024-03-02T20:57:15.988Z,49.26
2024-03-02T20:59:18.803Z,49.38
2024-03-02T21:01:23.760Z,49.41
2024-03-02T21:03:28.543Z,49.55
2024-03-02T21:05:32.461Z,49.32
2024-03-02T21:07:37.021Z,49.37
2024-03-02T21:09:40.745Z,49.30
2024-03-02T21:11:45.742Z,49.55
2024-03-02T21:13:50.525Z,49.31
2024-03-02T21:15:53.879Z,49.62
2024-03-02T21:17:57.510Z,49.41
2024-03-02T21:20:05.039Z,49.55
2024-03-02T21:22:08.523Z,49.46
2024-03-02T21:24:11.794Z,49.61
2024-03-02T21:26:15.422Z,49.47
2024-03-02T21:28:18.126Z,49.45
2024-03-02T21:30:21.534Z,49.51
2024-03-02T21:32:25.926Z,49.64
2024-03-02T21:34:30.166Z,49.64
2024-03-02T21:36:34.972Z,49.79
2024-03-02T21:38:38.355Z,49.64
2024-03-02T21:40:41.828Z,49.64
2024-03-02T21:42:45.515Z,49.51
2024-03-02T21:44:48.926Z,49.70
2024-03-02T21:46:52.455Z,49.85
2024-03-02T21:48:55.887Z,49.74
2024-03-02T21:50:59.493Z,49.80
2024-03-02T21:53:04.748Z,49.76
2024-03-02T21:55:10.235Z,49.72
2024-03-02T21:57:20.477Z,49.86
2024-03-02T21:59:23.866Z,49.59
2024-03-02T22:01:28.424Z,49.93
2024-03-02T22:03:32.909Z,49.97
2024-03-02T22:05:36.637Z,49.76
2024-03-02T22:07:39.095Z,49.90
2024-03-02T22:09:44.072Z,50.03
2024-03-02T22:11:47.356Z,49.94
2024-03-02T22:13:51.021Z,50.05
2024-03-02T22:15:54.597Z,50.12
2024-03-02T22:17:58.908Z,50.17
2024-03-02T22:20:02.737Z,49.85
2024-03-02T22:22:07.584Z,50.14
2024-03-02T22:24:15.046Z,50.29
2024-03-02T22:26:20.099Z,50.23
2024-03-02T22:28:23.508Z,50.17
2024-03-02T22:30:28.133Z,50.14
2024-03-02T22:32:31.514Z,50.39
2024-03-02T22:34:35.688Z,50.28
2024-03-02T22:36:39.152Z,50.18
2024-03-02T22:38:41.384Z,50.29
2024-03-02T22:40:45.319Z,50.26
2024-03-02T22:42:50.006Z,50.23
2024-03-02T22:44:54.102Z,50.17
2024-03-02T22:46:57.572Z,50.31
2024-03-02T22:49:00.960Z,50.24
2024-03-02T22:51:04.465Z,50.32
2024-03-02T22:53:07.767Z,50.29
2024-03-02T22:55:11.962Z,50.49
2024-03-02T22:57:18.544Z,50.37
2024-03-02T22:59:23.287Z,50.58
2024-03-02T23:01:27.158Z,50.47
2024-03-02T23:03:30.589Z,50.53
2024-03-02T23:05:34.098Z,50.54
2024-03-02T23:07:37.319Z,50.39
2024-03-02T23:09:40.985Z,50.35
2024-03-02T23:11:44.314Z,50.56
2024-03-02T23:13:47.784Z,50.42
2024-03-02T23:15:52.539Z,50.51
2024-03-02T23:17:55.855Z,50.44
2024-03-02T23:19:59.113Z,50.57
2024-03-02T23:22:03.283Z,50.54
2024-03-02T23:24:07.235Z,50.53
2024-03-02T23:26:09.687Z,50.46
2024-03-02T23:28:13.399Z,50.68
2024-03-02T23:30:19.333Z,50.70
2024-03-02T23:32:24.048Z,50.52
2024-03-02T23:34:28.775Z,50.51
2024-03-02T23:36:31.617Z,50.66
2024-03-02T23:38:35.813Z,50.65
2024-03-02T23:41:08.637Z,50.63
2024-03-02T23:43:12.535Z,50.63
2024-03-02T23:45:15.914Z,50.50
2024-03-02T23:47:19.294Z,50.61
2024-03-02T23:49:25.592Z,50.74
2024-03-02T23:51:28.836Z,50.62
2024-03-02T23:53:32.536Z,50.57
2024-03-02T23:55:46.427Z,50.47
2024-03-02T23:57:54.981Z,50.40
2024-03-02T23:59:58.481Z,50.51
